Terminal Aerodrome Forecast
Issued by NWS Mt. Holly, NJ

Home | Current Version | Previous Version | Text Only | Print | Product List | Glossary On
Versions: 1 2 3 4 5 6 7 8 9 10 11 12 13 14 15 16 17 18 19 20
000
FTUS41 KPHI 292320
TAFTTN
TAF
KTTN 292320Z 3000/3024 18004KT P6SM SCT300
     FM300800 17003KT 6SM BR SCT012
     FM301000 VRB02KT 3SM BR BKN009
     FM301200 21007KT P6SM BKN025
     FM301400 20011G19KT P6SM SCT045=

USA.gov is the U.S. government's official web portal to all federal, state and local government web resources and services.